Time;durP1;ratioP1;P1;durP2;ratioP2;P2;SDS_P1;SDS_P2;PMS_P1;PMS_P2;Temp;Humidity;BMP_temperature;BMP_pressure;BME280_temperature;BME280_humidity;BME280_pressure;Samples;Min_cycle;Max_cycle;Signal;HPM_P1;HPM_P2
2022/06/26 00:01:53;;;;;;;11.68;10.63;;;;;;;20.22;90.56;100314.00;5041222;28;20044;-71
2022/06/26 00:04:18;;;;;;;13.07;11.77;;;;;;;20.08;91.18;100318.22;5039400;28;20037;-72
2022/06/26 00:06:43;;;;;;;10.95;9.95;;;;;;;20.11;91.01;100322.56;5035491;28;20034;-71
2022/06/26 00:09:09;;;;;;;13.23;11.93;;;;;;;20.18;90.03;100312.44;5041924;28;20082;-71
2022/06/26 00:11:34;;;;;;;13.68;12.23;;;;;;;20.20;88.58;100319.44;5043334;28;20420;-71
2022/06/26 00:13:59;;;;;;;12.02;10.93;;;;;;;20.21;88.88;100317.63;5044995;28;20384;-72
2022/06/26 00:16:25;;;;;;;13.38;12.20;;;;;;;20.25;88.99;100316.53;5042080;28;20037;-72
2022/06/26 00:18:50;;;;;;;11.48;10.48;;;;;;;20.26;88.72;100320.94;5043575;28;20045;-72
2022/06/26 00:21:15;;;;;;;12.70;11.55;;;;;;;20.27;88.92;100315.50;5044660;28;20041;-72
2022/06/26 00:23:41;;;;;;;14.18;12.73;;;;;;;20.27;88.29;100315.50;5043437;28;20045;-72
2022/06/26 00:26:06;;;;;;;11.57;10.57;;;;;;;20.28;87.91;100321.75;5045552;28;20033;-72
2022/06/26 00:28:31;;;;;;;10.98;9.95;;;;;;;20.24;88.00;100321.00;5044334;28;20091;-72
2022/06/26 00:30:57;;;;;;;17.00;11.48;;;;;;;20.21;87.75;100323.00;5043648;28;20059;-72
2022/06/26 00:33:22;;;;;;;12.68;11.40;;;;;;;20.17;87.72;100326.75;5045614;28;20559;-72
2022/06/26 00:35:49;;;;;;;13.57;12.27;;;;;;;20.12;87.91;100322.50;5043150;28;20211;-72
2022/06/26 00:38:14;;;;;;;13.27;11.85;;;;;;;20.06;88.10;100329.97;5044856;28;20081;-72
2022/06/26 00:40:40;;;;;;;12.00;11.00;;;;;;;20.03;88.23;100330.13;5043325;28;20497;-72
2022/06/26 00:43:06;;;;;;;13.45;12.25;;;;;;;20.00;88.66;100331.13;5044559;28;20108;-72
2022/06/26 00:45:32;;;;;;;12.95;11.85;;;;;;;19.96;88.76;100321.50;5043015;28;20384;-72
2022/06/26 00:47:58;;;;;;;14.27;12.98;;;;;;;19.93;88.87;100330.53;5043389;28;20033;-72
2022/06/26 00:50:24;;;;;;;17.63;13.80;;;;;;;19.91;89.51;100321.75;5044557;28;20029;-72
2022/06/26 00:52:51;;;;;;;11.65;10.63;;;;;;;19.90;89.56;100329.84;5038295;28;20029;-72
2022/06/26 00:55:16;;;;;;;11.48;10.48;;;;;;;19.88;89.34;100332.56;5044961;28;20155;-72
2022/06/26 00:57:42;;;;;;;13.63;12.43;;;;;;;19.85;89.93;100334.53;5043931;28;20042;-72
2022/06/26 01:00:10;;;;;;;13.77;12.57;;;;;;;19.78;90.37;100335.75;5044080;28;20036;-72
2022/06/26 01:02:36;;;;;;;13.02;11.68;;;;;;;19.73;90.07;100327.06;5044671;28;20103;-72
2022/06/26 01:05:03;;;;;;;12.23;11.10;;;;;;;19.63;89.92;100340.03;5042355;28;20574;-72
2022/06/26 01:07:28;;;;;;;13.18;11.85;;;;;;;19.56;90.23;100331.38;5045037;28;20040;-72
2022/06/26 01:09:54;;;;;;;11.73;10.70;;;;;;;19.52;91.12;100334.28;5042497;28;20415;-72
2022/06/26 01:12:19;;;;;;;11.63;10.65;;;;;;;19.45;91.34;100328.34;5043178;28;20060;-72
2022/06/26 01:14:45;;;;;;;10.25;9.35;;;;;;;19.44;90.69;100322.13;5043259;28;20044;-72
2022/06/26 01:17:11;;;;;;;9.65;8.75;;;;;;;19.44;90.72;100334.63;5040856;28;20148;-72
2022/06/26 01:19:37;;;;;;;11.23;10.23;;;;;;;19.44;90.44;100329.28;5044246;28;20115;-72
2022/06/26 01:22:03;;;;;;;13.00;11.90;;;;;;;19.37;90.50;100331.38;5039832;28;20479;-72
2022/06/26 01:24:29;;;;;;;14.80;13.52;;;;;;;19.30;91.52;100329.06;5042858;28;20044;-72
2022/06/26 01:26:54;;;;;;;14.55;13.35;;;;;;;19.29;91.27;100328.19;5043794;28;20037;-72
2022/06/26 01:29:19;;;;;;;11.50;10.50;;;;;;;19.30;90.86;100331.72;5041619;28;20033;-72
2022/06/26 01:31:45;;;;;;;12.18;11.02;;;;;;;19.29;90.76;100332.69;5042632;28;20136;-72
2022/06/26 01:34:11;;;;;;;11.75;10.75;;;;;;;19.28;90.68;100337.13;5040627;28;20037;-72
2022/06/26 01:36:38;;;;;;;18.67;17.17;;;;;;;19.27;90.40;100335.41;5044634;28;20033;-72
2022/06/26 01:39:05;;;;;;;12.60;11.45;;;;;;;19.24;90.79;100341.75;5041412;28;20041;-72
2022/06/26 01:41:30;;;;;;;14.20;13.00;;;;;;;19.20;90.17;100334.84;5041330;28;20032;-72
2022/06/26 01:43:56;;;;;;;13.95;12.75;;;;;;;19.20;90.89;100333.94;5042973;28;20037;-72
2022/06/26 01:46:24;;;;;;;14.10;12.77;;;;;;;19.18;90.77;100343.88;5040194;28;20579;-72
2022/06/26 01:48:50;;;;;;;13.10;12.00;;;;;;;19.12;90.77;100339.63;5021531;28;20384;-72
2022/06/26 01:51:15;;;;;;;12.35;11.07;;;;;;;19.07;90.43;100344.31;5041903;28;20037;-72
2022/06/26 01:53:43;;;;;;;13.68;12.48;;;;;;;19.05;90.64;100340.88;5042001;28;20032;-72
2022/06/26 01:56:09;;;;;;;14.95;13.75;;;;;;;19.00;90.35;100337.53;5040995;28;20045;-72
2022/06/26 01:58:54;;;;;;;12.55;11.45;;;;;;;18.96;90.18;100336.75;5041897;28;20049;-72
2022/06/26 02:01:25;;;;;;;12.85;11.80;;;;;;;18.95;90.23;100339.53;5039354;28;20547;-72
2022/06/26 02:03:50;;;;;;;13.40;12.20;;;;;;;18.93;90.10;100334.22;5043350;28;20135;-72
2022/06/26 02:06:16;;;;;;;12.80;11.70;;;;;;;18.92;90.25;100337.00;5040507;28;20060;-72
2022/06/26 02:08:41;;;;;;;11.25;10.35;;;;;;;18.89;90.01;100334.44;5036811;28;20112;-72
2022/06/26 02:13:54;;;;;;;16.70;15.30;;;;;;;18.76;90.54;100328.78;5021322;28;20104;-72
2022/06/26 02:16:24;;;;;;;13.95;12.75;;;;;;;18.73;90.78;100340.44;5042176;28;20048;-72
2022/06/26 02:18:56;;;;;;;13.15;12.05;;;;;;;18.71;90.88;100336.94;5039578;28;20030;-72
2022/06/26 02:21:28;;;;;;;12.80;11.70;;;;;;;18.72;90.98;100343.16;5035477;28;20095;-72
2022/06/26 02:23:57;;;;;;;13.35;12.15;;;;;;;18.71;90.54;100347.63;5040123;28;20121;-72
2022/06/26 02:26:23;;;;;;;13.68;12.50;;;;;;;18.69;90.98;100348.63;5042766;28;20380;-72
2022/06/26 02:28:53;;;;;;;13.05;11.95;;;;;;;18.66;90.91;100352.31;5040536;28;20109;-72
2022/06/26 02:31:19;;;;;;;13.32;12.05;;;;;;;18.65;90.41;100352.34;5040656;28;20033;-72
2022/06/26 02:33:46;;;;;;;12.88;11.60;;;;;;;18.63;90.38;100360.47;5040885;28;20044;-72
2022/06/26 02:36:13;;;;;;;12.30;11.25;;;;;;;18.55;90.71;100358.13;5039465;28;20121;-72
2022/06/26 02:38:41;;;;;;;17.08;15.65;;;;;;;18.49;91.23;100352.13;5039026;28;20120;-72
2022/06/26 02:41:06;;;;;;;14.43;13.13;;;;;;;18.49;91.67;100357.47;5041097;28;20483;-72
2022/06/26 02:43:32;;;;;;;13.65;12.45;;;;;;;18.52;91.38;100368.03;5040757;28;20031;-72
2022/06/26 02:46:02;;;;;;;13.75;12.55;;;;;;;18.55;91.15;100374.16;5040124;28;20044;-72
2022/06/26 02:48:28;;;;;;;15.95;14.60;;;;;;;18.57;91.34;100372.25;5042490;28;20124;-72
2022/06/26 02:50:53;;;;;;;14.40;13.20;;;;;;;18.56;90.93;100361.66;5024590;28;20183;-72
2022/06/26 02:53:19;;;;;;;15.00;13.70;;;;;;;18.56;91.38;100370.53;5039577;28;20026;-72
2022/06/26 02:55:44;;;;;;;16.08;14.70;;;;;;;18.56;90.98;100362.50;5040820;28;20407;-72
2022/06/26 02:58:13;;;;;;;13.73;12.60;;;;;;;18.57;91.25;100366.03;5041125;28;20457;-72
2022/06/26 03:00:46;;;;;;;19.15;17.48;;;;;;;18.55;91.08;100365.25;5038966;28;20373;-72
2022/06/26 03:03:13;;;;;;;15.50;14.18;;;;;;;18.53;91.61;100365.31;5040710;28;20033;-72
2022/06/26 03:05:40;;;;;;;14.68;13.40;;;;;;;18.52;91.42;100373.38;5040840;28;20443;-72
2022/06/26 03:08:06;;;;;;;15.95;14.55;;;;;;;18.53;91.24;100376.00;5039715;28;20091;-72
2022/06/26 03:10:31;;;;;;;14.95;13.68;;;;;;;18.54;91.05;100379.53;5031831;28;20380;-72
2022/06/26 03:13:00;;;;;;;15.52;14.23;;;;;;;18.51;91.14;100374.34;5034424;28;20032;-72
2022/06/26 03:15:27;;;;;;;15.30;13.93;;;;;;;18.55;91.31;100383.97;5038820;28;20056;-72
2022/06/26 03:17:56;;;;;;;15.55;13.93;;;;;;;18.57;90.97;100382.94;5040572;28;20033;-72
2022/06/26 03:20:21;;;;;;;14.15;12.95;;;;;;;18.60;90.95;100380.16;5039412;28;20703;-72
2022/06/26 03:22:47;;;;;;;14.23;13.00;;;;;;;18.59;91.06;100385.56;5041067;28;20032;-72
2022/06/26 03:25:13;;;;;;;14.07;12.88;;;;;;;18.59;90.97;100391.78;5034517;28;20040;-72
2022/06/26 03:27:40;;;;;;;15.27;13.98;;;;;;;18.59;90.77;100396.25;5040945;28;20041;-72
2022/06/26 03:30:08;;;;;;;15.45;14.00;;;;;;;18.61;91.42;100400.59;5040032;28;20034;-72
2022/06/26 03:32:34;;;;;;;14.82;13.52;;;;;;;18.65;91.05;100405.81;5038851;28;20404;-72
2022/06/26 03:35:03;;;;;;;16.25;14.85;;;;;;;18.68;91.05;100406.59;5041626;28;20031;-72
2022/06/26 03:37:29;;;;;;;17.05;15.48;;;;;;;18.72;90.80;100412.66;5038539;28;20060;-72
2022/06/26 03:39:56;;;;;;;16.52;15.13;;;;;;;18.77;90.56;100402.69;5040139;28;20043;-72
2022/06/26 03:42:22;;;;;;;16.95;15.35;;;;;;;18.79;90.44;100400.81;5039379;28;20033;-72
2022/06/26 03:44:47;;;;;;;15.40;14.07;;;;;;;18.80;91.24;100411.44;5016912;28;20035;-72
2022/06/26 03:47:14;;;;;;;16.63;14.85;;;;;;;18.88;90.72;100408.44;5031471;28;20045;-72
2022/06/26 03:49:39;;;;;;;15.52;14.02;;;;;;;18.94;90.62;100412.66;5042624;28;20091;-72
2022/06/26 03:52:06;;;;;;;17.48;15.88;;;;;;;19.00;90.02;100413.28;5038305;28;20059;-72
2022/06/26 03:54:34;;;;;;;21.50;19.70;;;;;;;19.04;89.57;100414.84;5040003;28;20061;-72
2022/06/26 03:56:59;;;;;;;17.85;16.33;;;;;;;19.11;89.88;100410.13;5040267;28;20569;-72
2022/06/26 03:59:28;;;;;;;15.88;14.45;;;;;;;19.15;89.24;100410.84;5038240;28;20036;-72
2022/06/26 04:01:54;;;;;;;17.17;15.68;;;;;;;19.14;89.30;100410.00;5041959;28;20033;-72
2022/06/26 04:04:19;;;;;;;14.88;13.55;;;;;;;19.18;89.34;100419.63;5038613;28;20451;-72
2022/06/26 04:06:49;;;;;;;16.88;15.27;;;;;;;19.23;89.56;100411.38;5039753;28;20035;-72
2022/06/26 04:09:23;;;;;;;16.95;15.45;;;;;;;19.27;89.43;100407.66;5039548;28;20036;-72
2022/06/26 04:11:49;;;;;;;17.17;15.68;;;;;;;19.35;89.52;100410.84;5037525;28;20037;-72
2022/06/26 04:14:14;;;;;;;18.20;16.58;;;;;;;19.40;89.03;100406.16;5040482;28;20040;-72
2022/06/26 04:16:40;;;;;;;16.85;15.27;;;;;;;19.49;88.94;100407.53;5039310;28;20046;-72
2022/06/26 04:19:05;;;;;;;16.33;14.82;;;;;;;19.52;88.40;100410.13;5039125;28;20039;-72
2022/06/26 04:21:30;;;;;;;17.17;15.65;;;;;;;19.55;88.50;100412.66;5039736;28;20033;-73
2022/06/26 04:23:56;;;;;;;15.82;14.48;;;;;;;19.62;88.30;100408.75;5037827;28;20116;-72
2022/06/26 04:26:22;;;;;;;18.73;17.02;;;;;;;19.73;88.05;100412.75;5037715;28;20037;-72
2022/06/26 04:28:48;;;;;;;17.13;15.52;;;;;;;19.83;88.29;100414.06;5040525;28;20075;-72
2022/06/26 04:31:14;;;;;;;18.13;16.60;;;;;;;19.93;88.31;100415.38;5038682;28;20042;-72
2022/06/26 04:33:40;;;;;;;15.88;14.55;;;;;;;20.06;86.78;100416.53;5039081;28;20029;-72
2022/06/26 04:36:06;;;;;;;16.95;15.32;;;;;;;20.14;86.89;100411.69;5041835;28;20044;-72
2022/06/26 04:38:32;;;;;;;17.48;15.93;;;;;;;20.23;86.24;100414.91;5037645;28;20033;-72
2022/06/26 04:40:58;;;;;;;17.60;16.00;;;;;;;20.32;86.45;100419.81;5040076;28;20029;-72
2022/06/26 04:43:23;;;;;;;16.17;14.30;;;;;;;20.39;86.28;100413.22;5038061;28;20121;-72
2022/06/26 04:45:49;;;;;;;14.63;13.43;;;;;;;20.48;85.85;100412.75;5039684;28;20132;-72
2022/06/26 04:48:16;;;;;;;15.13;13.82;;;;;;;20.58;85.13;100411.38;5039862;28;20446;-72
2022/06/26 04:50:41;;;;;;;16.63;15.23;;;;;;;20.65;84.55;100414.63;5038091;28;20132;-72
2022/06/26 04:53:07;;;;;;;16.05;14.55;;;;;;;20.75;84.55;100415.03;5040409;28;20033;-72
2022/06/26 04:55:32;;;;;;;15.85;14.43;;;;;;;20.81;84.54;100425.47;5037554;28;20025;-72
2022/06/26 04:57:58;;;;;;;17.42;15.93;;;;;;;20.85;83.94;100421.66;5042521;28;20033;-72
2022/06/26 05:00:24;;;;;;;16.65;15.23;;;;;;;20.93;84.00;100418.59;5044007;28;20029;-72
2022/06/26 05:03:11;;;;;;;15.80;14.30;;;;;;;20.98;84.17;100422.78;5038856;28;20033;-72
2022/06/26 05:05:54;;;;;;;17.00;15.50;;;;;;;20.99;83.76;100427.22;5037569;28;20041;-72
2022/06/26 05:08:35;;;;;;;16.23;14.73;;;;;;;21.07;83.53;100432.19;5041238;28;20659;-72
2022/06/26 05:11:02;;;;;;;15.32;13.90;;;;;;;21.20;83.17;100435.97;5043477;28;20391;-72
2022/06/26 05:13:31;;;;;;;18.70;17.10;;;;;;;21.18;82.64;100429.81;5041990;28;20033;-72
2022/06/26 05:16:17;;;;;;;18.05;16.52;;;;;;;21.14;82.57;100438.09;5024437;28;20407;-72
2022/06/26 05:18:42;;;;;;;16.02;14.57;;;;;;;21.25;81.86;100430.38;5044212;28;20049;-72
2022/06/26 05:21:08;;;;;;;18.00;16.38;;;;;;;21.37;81.55;100435.06;5041911;28;20087;-72
2022/06/26 05:23:38;;;;;;;15.68;14.35;;;;;;;21.54;81.20;100430.69;5041258;28;20044;-72
2022/06/26 05:26:07;;;;;;;16.10;14.65;;;;;;;21.62;79.71;100434.69;5039695;28;20120;-72
2022/06/26 05:28:33;;;;;;;14.57;13.30;;;;;;;21.66;80.30;100430.00;5037466;28;20108;-72
2022/06/26 05:30:59;;;;;;;14.90;13.68;;;;;;;21.86;79.81;100440.56;5039711;28;20037;-72
2022/06/26 05:33:25;;;;;;;13.88;12.48;;;;;;;21.99;78.86;100435.38;5041804;28;20047;-72
2022/06/26 05:35:50;;;;;;;15.50;14.00;;;;;;;22.02;78.79;100431.66;5043322;28;20025;-72
2022/06/26 05:38:16;;;;;;;12.45;11.32;;;;;;;22.11;77.87;100441.88;5040375;28;20105;-72
2022/06/26 05:40:42;;;;;;;15.20;13.85;;;;;;;22.16;76.14;100438.94;5043751;28;20123;-72
2022/06/26 05:43:08;;;;;;;14.98;13.50;;;;;;;21.97;76.53;100439.09;5040677;28;20156;-72
2022/06/26 05:45:34;;;;;;;15.35;13.85;;;;;;;22.04;77.02;100445.88;5042076;28;20033;-72
2022/06/26 05:48:24;;;;;;;15.45;13.98;;;;;;;22.20;76.51;100444.09;5039171;28;20029;-72
2022/06/26 05:51:09;;;;;;;15.45;13.85;;;;;;;22.35;76.08;100444.19;5038879;28;20045;-72
2022/06/26 05:53:38;;;;;;;14.65;13.35;;;;;;;22.53;75.54;100448.50;5041540;28;20032;-72
2022/06/26 05:56:22;;;;;;;13.98;12.52;;;;;;;22.70;74.43;100452.94;5040535;28;20049;-72
2022/06/26 05:58:55;;;;;;;14.73;13.25;;;;;;;22.80;74.24;100453.28;5041809;28;20111;-72
2022/06/26 06:01:39;;;;;;;13.23;12.02;;;;;;;22.81;72.77;100441.53;5041575;28;20048;-72
2022/06/26 06:04:10;;;;;;;12.32;11.23;;;;;;;22.86;72.52;100445.69;5040094;28;20025;-72
2022/06/26 06:06:36;;;;;;;13.75;12.65;;;;;;;22.93;72.60;100446.22;5044184;28;20159;-72
2022/06/26 06:09:05;;;;;;;12.25;10.70;;;;;;;22.97;72.45;100448.66;5039736;28;20526;-72
2022/06/26 06:11:31;;;;;;;12.55;11.40;;;;;;;23.03;72.07;100444.75;5040587;28;20127;-72
2022/06/26 06:13:56;;;;;;;12.07;10.98;;;;;;;23.15;71.82;100452.06;5042652;28;20059;-72
2022/06/26 06:16:24;;;;;;;11.50;10.40;;;;;;;23.25;71.97;100459.63;5039758;28;20538;-72
2022/06/26 06:18:50;;;;;;;11.93;10.88;;;;;;;23.37;71.03;100464.25;5036909;28;20071;-72
2022/06/26 06:21:15;;;;;;;12.93;11.75;;;;;;;23.53;70.88;100459.69;5041481;28;20491;-71
2022/06/26 06:23:42;;;;;;;12.55;11.18;;;;;;;23.60;69.85;100458.31;5041460;28;20044;-72
2022/06/26 06:26:09;;;;;;;11.88;10.88;;;;;;;23.75;69.47;100455.69;5041830;28;20060;-72
2022/06/26 06:28:35;;;;;;;10.80;9.90;;;;;;;23.83;68.31;100453.38;5039654;28;20033;-71
2022/06/26 06:31:00;;;;;;;9.88;9.07;;;;;;;23.89;68.32;100454.81;5043741;28;20025;-71
2022/06/26 06:33:27;;;;;;;9.48;8.57;;;;;;;23.98;66.97;100465.03;5040288;28;20033;-72
2022/06/26 06:35:55;;;;;;;9.88;8.88;;;;;;;24.05;66.66;100459.16;5041036;28;20029;-72
2022/06/26 06:38:22;;;;;;;9.95;8.18;;;;;;;24.21;65.91;100459.03;5040898;28;20037;-72
2022/06/26 06:40:52;;;;;;;9.40;8.30;;;;;;;24.36;65.67;100465.25;5038909;28;20439;-72
2022/06/26 06:43:23;;;;;;;9.32;8.43;;;;;;;24.54;65.26;100459.66;5041384;28;20037;-72
2022/06/26 06:46:07;;;;;;;9.85;8.88;;;;;;;24.57;63.10;100462.16;5037520;28;20071;-72
2022/06/26 06:48:34;;;;;;;9.40;8.50;;;;;;;24.57;63.40;100460.31;5041349;28;20029;-72
2022/06/26 06:51:31;;;;;;;9.45;7.20;;;;;;;24.73;63.59;100454.78;5041500;28;20102;-72
2022/06/26 06:53:56;;;;;;;6.53;5.93;;;;;;;24.87;62.19;100468.25;5040840;28;20116;-72
2022/06/26 06:56:22;;;;;;;5.70;5.10;;;;;;;25.00;60.04;100453.94;5042103;28;20683;-72
2022/06/26 06:58:47;;;;;;;7.63;5.90;;;;;;;25.10;59.78;100457.72;5039029;28;20033;-71
2022/06/26 07:01:13;;;;;;;6.05;4.50;;;;;;;25.26;58.92;100455.75;5040915;28;20557;-72
2022/06/26 07:03:39;;;;;;;5.18;4.63;;;;;;;25.33;57.44;100459.72;5040351;28;20049;-72
2022/06/26 07:06:04;;;;;;;6.18;4.20;;;;;;;25.47;57.67;100460.63;5040134;28;20129;-72
2022/06/26 07:08:31;;;;;;;6.75;4.55;;;;;;;25.62;56.70;100447.88;5039400;28;20122;-71
2022/06/26 07:10:57;;;;;;;5.35;4.10;;;;;;;25.72;55.89;100454.34;5038770;28;20130;-72
2022/06/26 07:13:22;;;;;;;5.45;4.05;;;;;;;25.86;55.87;100451.59;5041855;28;20065;-72
2022/06/26 07:15:47;;;;;;;6.70;3.83;;;;;;;26.01;54.78;100450.47;5040681;28;20040;-72
2022/06/26 07:18:13;;;;;;;4.88;3.88;;;;;;;26.14;54.79;100455.84;5041900;28;20430;-71
2022/06/26 07:20:38;;;;;;;4.15;3.40;;;;;;;26.27;54.30;100449.56;5041194;28;20112;-72
2022/06/26 07:23:05;;;;;;;5.05;3.38;;;;;;;26.44;53.83;100451.91;5037319;28;20044;-72
2022/06/26 07:25:42;;;;;;;4.03;3.53;;;;;;;26.58;53.61;100446.34;5036674;28;20047;-72
2022/06/26 07:28:09;;;;;;;4.93;4.00;;;;;;;26.75;51.94;100449.63;5040262;28;20033;-72
2022/06/26 07:30:36;;;;;;;6.93;3.90;;;;;;;26.87;52.14;100444.16;5039141;28;20502;-72
2022/06/26 07:33:04;;;;;;;4.22;3.30;;;;;;;26.98;52.09;100443.34;5041139;28;20494;-72
2022/06/26 07:35:30;;;;;;;4.53;3.50;;;;;;;27.01;50.91;100442.25;5019859;28;20030;-72
2022/06/26 07:37:56;;;;;;;5.13;3.28;;;;;;;27.11;50.30;100438.69;5040463;28;20029;-72
2022/06/26 07:40:21;;;;;;;5.13;2.63;;;;;;;27.20;49.80;100444.47;5036249;28;20582;-72
2022/06/26 07:42:47;;;;;;;5.22;3.50;;;;;;;27.30;49.31;100434.59;5038675;28;20076;-72
2022/06/26 07:45:14;;;;;;;4.47;3.05;;;;;;;27.54;49.54;100434.56;5041285;28;20032;-72
2022/06/26 07:47:51;;;;;;;4.90;3.47;;;;;;;27.67;48.69;100435.31;5039528;28;20041;-72
2022/06/26 07:50:16;;;;;;;4.57;3.17;;;;;;;27.78;48.37;100434.44;5039506;28;20034;-72
2022/06/26 07:52:42;;;;;;;4.10;3.00;;;;;;;27.93;48.50;100435.97;5041212;28;20119;-72
2022/06/26 07:55:07;;;;;;;4.05;3.00;;;;;;;28.06;45.59;100432.25;5039696;28;20033;-72
2022/06/26 07:57:33;;;;;;;5.80;3.00;;;;;;;28.06;46.64;100432.25;5039331;28;20033;-72
2022/06/26 07:59:58;;;;;;;3.92;3.13;;;;;;;28.23;46.77;100434.47;5042218;28;20553;-72
2022/06/26 08:02:24;;;;;;;5.72;3.05;;;;;;;28.46;46.45;100435.31;5039853;28;20029;-72
2022/06/26 08:04:49;;;;;;;5.10;3.03;;;;;;;28.63;46.37;100432.03;5040972;28;20476;-72
2022/06/26 08:07:14;;;;;;;4.90;3.20;;;;;;;28.77;46.38;100435.50;5041473;28;20472;-72
2022/06/26 08:09:40;;;;;;;4.18;2.95;;;;;;;28.78;45.43;100434.47;5039180;28;20488;-72
2022/06/26 08:12:05;;;;;;;3.60;2.78;;;;;;;28.94;45.16;100434.06;5042010;28;20471;-71
2022/06/26 08:14:32;;;;;;;3.45;2.70;;;;;;;29.27;45.19;100431.19;5039078;28;20036;-72
2022/06/26 08:16:58;;;;;;;5.55;3.55;;;;;;;29.45;44.60;100417.88;5039037;28;20049;-72
2022/06/26 08:19:23;;;;;;;5.00;2.80;;;;;;;29.63;44.63;100426.28;5040886;28;20029;-72
2022/06/26 08:22:01;;;;;;;4.13;2.90;;;;;;;29.84;43.56;100422.66;5040643;28;20573;-72
2022/06/26 08:24:26;;;;;;;4.10;2.75;;;;;;;29.75;42.69;100420.78;5036261;28;20049;-72
2022/06/26 08:26:52;;;;;;;3.10;2.55;;;;;;;29.78;43.03;100424.06;5040210;28;20044;-72
2022/06/26 08:29:17;;;;;;;4.47;3.00;;;;;;;29.69;42.52;100427.63;5040737;28;20033;-72
2022/06/26 08:31:43;;;;;;;3.70;2.58;;;;;;;29.57;42.99;100426.78;5040388;28;20479;-71
2022/06/26 08:34:08;;;;;;;3.50;2.60;;;;;;;29.51;42.52;100427.34;5046133;28;20025;-72
2022/06/26 08:36:34;;;;;;;3.60;2.40;;;;;;;29.54;42.67;100421.63;5042863;28;20810;-72
2022/06/26 08:38:59;;;;;;;5.95;2.78;;;;;;;29.46;42.59;100426.88;5045918;28;20048;-72
2022/06/26 08:41:28;;;;;;;4.15;3.10;;;;;;;29.42;42.40;100422.69;5041554;28;20033;-72
2022/06/26 08:43:58;;;;;;;4.20;2.78;;;;;;;29.44;42.74;100420.72;5043033;28;20037;-71
2022/06/26 08:46:26;;;;;;;3.47;2.67;;;;;;;29.55;42.71;100426.06;5044834;28;20045;-72
2022/06/26 08:48:53;;;;;;;3.83;2.63;;;;;;;29.75;42.83;100423.50;5039182;28;20420;-72
2022/06/26 08:51:19;;;;;;;3.70;2.28;;;;;;;29.87;42.13;100423.28;5044467;28;20036;-72
2022/06/26 08:53:45;;;;;;;3.25;2.20;;;;;;;29.94;41.37;100423.56;5044436;28;20052;-72
2022/06/26 08:56:11;;;;;;;3.92;2.05;;;;;;;29.93;40.81;100421.84;5043230;28;20434;-71
2022/06/26 08:58:36;;;;;;;3.90;2.10;;;;;;;29.82;39.40;100439.13;5045569;28;20025;-72
2022/06/26 09:01:04;;;;;;;5.38;2.08;;;;;;;29.68;39.52;100424.06;5041859;28;20044;-72
2022/06/26 09:03:31;;;;;;;3.58;2.00;;;;;;;29.67;38.49;100427.75;5039418;28;20120;-72
2022/06/26 09:05:57;;;;;;;3.45;2.15;;;;;;;29.42;39.26;100436.28;5044133;28;20506;-72
2022/06/26 09:08:25;;;;;;;4.20;1.80;;;;;;;29.33;39.63;100439.81;5043575;28;20060;-72
2022/06/26 09:10:50;;;;;;;3.20;1.80;;;;;;;29.34;39.43;100441.53;5044893;28;20040;-71
2022/06/26 09:13:16;;;;;;;2.90;1.75;;;;;;;29.51;37.78;100431.94;5040141;28;20025;-72
2022/06/26 09:15:43;;;;;;;4.13;1.75;;;;;;;29.61;38.47;100427.41;5042463;28;20048;-72
2022/06/26 09:18:11;;;;;;;4.25;1.42;;;;;;;29.87;38.29;100436.88;5044235;28;20128;-72
2022/06/26 09:20:50;;;;;;;3.22;2.05;;;;;;;30.09;38.45;100438.53;5044341;28;20041;-72
2022/06/26 09:23:15;;;;;;;4.53;2.30;;;;;;;30.07;38.19;100432.34;5039436;28;20167;-72
2022/06/26 09:25:43;;;;;;;2.38;1.80;;;;;;;30.25;38.15;100426.28;5044117;28;20072;-71
2022/06/26 09:28:16;;;;;;;4.50;2.50;;;;;;;30.36;37.43;100437.06;5035962;28;20049;-72
2022/06/26 09:30:46;;;;;;;6.90;3.10;;;;;;;30.64;37.12;100440.84;5038188;28;20040;-72
2022/06/26 09:33:12;;;;;;;3.78;2.75;;;;;;;30.80;37.26;100441.16;5043385;28;20040;-72
2022/06/26 09:35:37;;;;;;;5.72;3.35;;;;;;;31.06;36.88;100437.03;5043786;28;20037;-72
2022/06/26 09:38:03;;;;;;;5.50;3.90;;;;;;;31.25;36.12;100437.00;5042681;28;20064;-72
2022/06/26 09:40:29;;;;;;;6.28;3.95;;;;;;;31.37;35.61;100441.34;5045034;28;20036;-72
2022/06/26 09:42:56;;;;;;;6.05;4.30;;;;;;;31.52;35.40;100440.84;5038759;28;20046;-72
2022/06/26 09:45:21;;;;;;;5.68;4.20;;;;;;;31.78;34.63;100438.34;5044394;28;20033;-72
2022/06/26 09:47:47;;;;;;;6.38;4.57;;;;;;;31.99;33.83;100440.88;5042988;28;20519;-72
2022/06/26 09:50:12;;;;;;;6.25;4.15;;;;;;;31.80;34.47;100431.72;5042975;28;20045;-72
2022/06/26 09:52:38;;;;;;;5.90;4.35;;;;;;;31.96;34.61;100431.13;5043452;28;20041;-72
2022/06/26 09:55:05;;;;;;;4.90;3.42;;;;;;;32.14;34.17;100436.66;5041779;28;20037;-72
2022/06/26 09:57:32;;;;;;;7.03;3.92;;;;;;;32.16;33.75;100420.97;5037280;28;20227;-71
2022/06/26 09:59:58;;;;;;;6.10;2.85;;;;;;;32.40;33.68;100425.00;5043996;28;20450;-72
2022/06/26 10:08:04;;;;;;;9.00;4.80;;;;;;;32.52;31.64;100432.03;5038753;28;20041;-72
2022/06/26 10:10:31;;;;;;;5.53;4.13;;;;;;;32.58;31.90;100425.94;5042342;28;20029;-71
2022/06/26 10:13:00;;;;;;;6.53;4.72;;;;;;;32.68;31.48;100432.19;5043352;28;20116;-72
2022/06/26 10:15:29;;;;;;;8.13;5.10;;;;;;;32.95;31.70;100422.19;5035071;28;20028;-72
2022/06/26 10:18:20;;;;;;;5.78;4.10;;;;;;;33.44;30.40;100424.50;5042555;28;20038;-72
2022/06/26 10:20:48;;;;;;;4.05;3.28;;;;;;;33.68;30.20;100418.34;5040788;28;20034;-71
2022/06/26 10:23:33;;;;;;;5.07;3.50;;;;;;;33.74;29.51;100425.91;5041105;28;20369;-72
2022/06/26 10:25:58;;;;;;;4.00;3.28;;;;;;;34.10;29.31;100418.41;5041146;28;20439;-72
2022/06/26 10:28:23;;;;;;;5.28;4.45;;;;;;;34.10;29.31;100423.03;5041293;28;20029;-72
2022/06/26 10:30:49;;;;;;;5.55;4.50;;;;;;;33.85;29.11;100417.41;5044059;28;20041;-72
2022/06/26 10:33:16;;;;;;;6.55;4.15;;;;;;;33.78;29.45;100417.22;5040092;28;20541;-72
2022/06/26 10:35:46;;;;;;;5.70;3.90;;;;;;;33.36;29.97;100425.31;5039418;28;20040;-72
2022/06/26 10:38:21;;;;;;;5.55;3.28;;;;;;;33.16;30.48;100430.94;5043077;28;20454;-72
2022/06/26 10:44:07;;;;;;;18.13;13.32;;;;;;;33.07;30.94;100420.13;5040657;28;20045;-72
2022/06/26 10:46:45;;;;;;;17.77;15.90;;;;;;;33.13;31.03;100416.75;5038824;28;20033;-72
2022/06/26 10:49:11;;;;;;;17.15;14.52;;;;;;;33.15;31.79;100418.31;5040535;28;20045;-71
2022/06/26 10:51:42;;;;;;;13.10;11.73;;;;;;;33.18;31.83;100414.38;5036120;28;20120;-72
2022/06/26 10:54:25;;;;;;;10.90;8.40;;;;;;;33.06;30.93;100411.03;5041777;28;20082;-72
2022/06/26 10:57:02;;;;;;;11.18;8.82;;;;;;;32.81;31.93;100411.81;5037612;28;20052;-72
2022/06/26 10:59:28;;;;;;;11.05;8.90;;;;;;;32.66;31.86;100411.50;5040692;28;20053;-72
2022/06/26 11:01:53;;;;;;;11.88;8.52;;;;;;;32.64;31.75;100410.78;5042982;28;20094;-72
2022/06/26 11:04:19;;;;;;;12.13;8.07;;;;;;;32.72;31.84;100409.00;5040408;28;20507;-72
2022/06/26 11:06:44;;;;;;;11.63;8.88;;;;;;;33.01;31.35;100402.44;5042770;28;20064;-72
2022/06/26 11:09:10;;;;;;;10.65;7.90;;;;;;;33.20;31.39;100395.94;5040010;28;20036;-72
2022/06/26 11:11:35;;;;;;;10.32;8.02;;;;;;;33.43;31.23;100395.41;5040828;28;20040;-72
2022/06/26 11:14:07;;;;;;;11.05;8.85;;;;;;;33.41;30.33;100401.06;5042298;28;20068;-72
2022/06/26 11:16:41;;;;;;;12.20;8.45;;;;;;;33.41;30.75;100387.38;5036539;28;20132;-72
2022/06/26 11:19:20;;;;;;;9.65;7.47;;;;;;;33.39;29.86;100387.53;5041216;28;20446;-72
2022/06/26 11:21:45;;;;;;;8.40;7.10;;;;;;;33.57;29.96;100384.78;5036425;28;20120;-72
2022/06/26 11:24:11;;;;;;;9.27;6.05;;;;;;;33.85;29.42;100381.81;5042191;28;20337;-72
2022/06/26 11:26:36;;;;;;;8.75;6.55;;;;;;;34.12;29.27;100383.50;5041523;28;20041;-72
2022/06/26 11:29:03;;;;;;;8.88;7.18;;;;;;;33.82;29.54;100384.88;5040524;28;20060;-71
2022/06/26 11:31:31;;;;;;;11.55;8.95;;;;;;;33.65;29.94;100380.38;5042291;28;20037;-72